Time;durP1;ratioP1;P1;durP2;ratioP2;P2;SDS_P1;SDS_P2;PMS_P1;PMS_P2;Temp;Humidity;BMP_temperature;BMP_pressure;BME280_temperature;BME280_humidity;BME280_pressure;Samples;Min_cycle;Max_cycle;Signal;HPM_P1;HPM_P2
2023/08/07 00:02:23;;;;;;;8.57;1.30;;;14.80;99.90;;;;;;6212492;23;20015;-86
2023/08/07 00:04:48;;;;;;;9.85;1.55;;;14.70;99.90;;;;;;6213313;23;20007;-86
2023/08/07 00:07:14;;;;;;;5.43;1.52;;;14.70;99.90;;;;;;6211783;23;20007;-86
2023/08/07 00:09:39;;;;;;;8.00;2.20;;;14.70;99.90;;;;;;6186262;23;20004;-86
2023/08/07 00:12:05;;;;;;;9.02;1.73;;;14.70;99.90;;;;;;6212051;23;20008;-87
2023/08/07 00:14:31;;;;;;;5.03;1.10;;;14.70;99.90;;;;;;6212580;23;20011;-84
2023/08/07 00:16:56;;;;;;;3.97;1.70;;;14.70;99.90;;;;;;6212228;23;20101;-86
2023/08/07 00:19:22;;;;;;;6.40;1.50;;;14.70;99.90;;;;;;6211989;23;20071;-85
2023/08/07 00:21:47;;;;;;;7.43;1.17;;;14.70;99.90;;;;;;6211909;23;20143;-83
2023/08/07 00:24:13;;;;;;;4.45;1.02;;;14.70;99.90;;;;;;6211868;23;20008;-83
2023/08/07 00:26:38;;;;;;;4.65;1.02;;;14.60;99.90;;;;;;6211952;23;20075;-83
2023/08/07 00:29:04;;;;;;;6.45;1.33;;;14.60;99.90;;;;;;6211787;23;20019;-83
2023/08/07 00:31:31;;;;;;;4.30;0.88;;;14.60;99.90;;;;;;6212093;23;20056;-84
2023/08/07 00:33:57;;;;;;;3.58;0.93;;;14.60;99.90;;;;;;6212110;23;20005;-86
2023/08/07 00:36:23;;;;;;;5.57;1.40;;;14.60;99.90;;;;;;6211257;23;19996;-84
2023/08/07 00:38:50;;;;;;;6.28;1.52;;;14.60;99.90;;;;;;6212205;23;20495;-85
2023/08/07 00:41:17;;;;;;;5.22;1.55;;;14.60;99.90;;;;;;6212032;23;20080;-87
2023/08/07 00:43:42;;;;;;;2.30;0.90;;;14.50;99.90;;;;;;6212652;23;20007;-86
2023/08/07 00:46:08;;;;;;;7.72;1.58;;;14.60;99.90;;;;;;6213994;23;20009;-84
2023/08/07 00:48:34;;;;;;;5.60;1.33;;;14.50;99.90;;;;;;6187524;23;20096;-83
2023/08/07 00:51:00;;;;;;;5.40;1.58;;;14.50;99.90;;;;;;6213680;23;20001;-85
2023/08/07 00:53:26;;;;;;;8.82;1.55;;;14.50;99.90;;;;;;6213601;23;20023;-84
2023/08/07 00:55:51;;;;;;;6.60;1.70;;;14.50;99.90;;;;;;6214251;23;20422;-86
2023/08/07 00:58:18;;;;;;;9.27;1.77;;;14.50;99.90;;;;;;6213533;23;20001;-83
2023/08/07 01:00:44;;;;;;;7.00;1.80;;;14.50;99.90;;;;;;6214331;23;20001;-84
2023/08/07 01:03:13;;;;;;;6.53;1.50;;;14.50;99.90;;;;;;6213809;23;20058;-85
2023/08/07 01:05:39;;;;;;;5.55;1.70;;;14.50;99.90;;;;;;6213438;23;20007;-85
2023/08/07 01:08:05;;;;;;;10.05;1.98;;;14.50;99.90;;;;;;6214006;23;20044;-85
2023/08/07 01:10:40;;;;;;;7.25;1.90;;;14.50;99.90;;;;;;6213952;23;20058;-84
2023/08/07 01:13:18;;;;;;;9.75;2.58;;;14.50;99.90;;;;;;6187794;23;20330;-86
2023/08/07 01:15:46;;;;;;;7.47;1.90;;;14.50;99.90;;;;;;6214795;23;20054;-86
2023/08/07 01:18:13;;;;;;;7.80;2.17;;;14.40;99.90;;;;;;6213739;23;20071;-86
2023/08/07 01:20:39;;;;;;;7.97;2.53;;;14.50;99.90;;;;;;6214729;23;20001;-87
2023/08/07 01:23:04;;;;;;;9.65;2.38;;;14.50;99.90;;;;;;6214605;23;20318;-86
2023/08/07 01:25:30;;;;;;;9.73;2.72;;;14.50;99.90;;;;;;6215467;23;20008;-86
2023/08/07 01:28:15;;;;;;;6.80;2.33;;;14.40;99.90;;;;;;6215172;23;20055;-86
2023/08/07 01:30:45;;;;;;;13.38;2.17;;;14.50;99.90;;;;;;6215755;23;20065;-87
2023/08/07 01:33:22;;;;;;;11.05;2.95;;;14.50;99.90;;;;;;6213774;23;20055;-86
2023/08/07 01:35:51;;;;;;;8.18;2.25;;;14.50;99.90;;;;;;6188589;23;20031;-86
2023/08/07 01:38:18;;;;;;;8.98;2.80;;;14.60;99.90;;;;;;6214525;23;20131;-87
2023/08/07 01:40:45;;;;;;;5.55;2.65;;;14.60;99.90;;;;;;6217192;23;20005;-87
2023/08/07 01:43:11;;;;;;;7.97;2.22;;;14.60;99.90;;;;;;6222278;23;20005;-88
2023/08/07 01:45:36;;;;;;;7.85;2.53;;;14.60;99.90;;;;;;6226299;23;20427;-87
2023/08/07 01:48:02;;;;;;;9.02;2.97;;;14.60;99.90;;;;;;6219388;23;20031;-86
2023/08/07 01:50:29;;;;;;;6.97;2.75;;;14.60;99.90;;;;;;6221938;23;20334;-88
2023/08/07 01:52:54;;;;;;;9.82;2.30;;;14.60;99.90;;;;;;6220859;23;20005;-88
2023/08/07 01:55:21;;;;;;;7.20;2.53;;;14.60;99.90;;;;;;6216164;23;20005;-87
2023/08/07 01:57:46;;;;;;;8.35;2.55;;;14.70;99.90;;;;;;6217392;23;20024;-89
2023/08/07 02:00:12;;;;;;;7.30;2.67;;;14.60;99.90;;;;;;6222847;23;20005;-89
2023/08/07 02:02:38;;;;;;;11.45;3.30;;;14.70;99.90;;;;;;6220260;23;20058;-89
2023/08/07 02:05:04;;;;;;;10.07;2.70;;;14.70;99.90;;;;;;6217938;23;20052;-89
2023/08/07 02:07:30;;;;;;;14.60;4.15;;;14.70;99.90;;;;;;6215939;23;20001;-91
2023/08/07 02:09:56;;;;;;;9.68;2.85;;;14.70;99.90;;;;;;6215619;23;20011;-89
2023/08/07 02:12:22;;;;;;;12.73;3.47;;;14.70;99.90;;;;;;6215170;23;20004;-89
2023/08/07 02:14:48;;;;;;;11.07;3.00;;;14.70;99.90;;;;;;6215723;23;20450;-88
2023/08/07 02:17:13;;;;;;;9.82;3.72;;;14.80;99.90;;;;;;6214689;23;20446;-89
2023/08/07 02:19:39;;;;;;;11.30;3.65;;;14.70;99.90;;;;;;6215283;23;20007;-87
2023/08/07 02:22:05;;;;;;;7.47;3.25;;;14.70;99.90;;;;;;6188766;23;20015;-90
2023/08/07 02:24:31;;;;;;;8.57;2.80;;;14.80;99.90;;;;;;6215131;23;20000;-88
2023/08/07 02:26:57;;;;;;;10.15;2.80;;;14.80;99.90;;;;;;6215180;23;20003;-89
2023/08/07 02:29:22;;;;;;;10.98;3.10;;;14.80;99.90;;;;;;6215275;23;20004;-90
2023/08/07 02:31:48;;;;;;;12.60;3.03;;;14.80;99.90;;;;;;6214925;23;20008;-89
2023/08/07 02:34:13;;;;;;;10.27;2.88;;;14.80;99.90;;;;;;6214749;23;19996;-88
2023/08/07 02:36:39;;;;;;;10.23;3.30;;;14.80;99.90;;;;;;6188087;23;20005;-88
2023/08/07 02:39:04;;;;;;;7.32;2.80;;;14.80;99.90;;;;;;6214729;23;20016;-91
2023/08/07 02:41:31;;;;;;;8.50;2.40;;;14.80;99.90;;;;;;6215040;23;20082;-90
2023/08/07 02:43:57;;;;;;;11.15;3.60;;;14.80;99.90;;;;;;6215308;23;19996;-90
2023/08/07 02:46:22;;;;;;;10.85;2.80;;;14.80;99.90;;;;;;6214209;23;20008;-89
2023/08/07 02:48:48;;;;;;;9.10;2.72;;;14.80;99.90;;;;;;6188937;23;20000;-90
2023/08/07 02:51:13;;;;;;;6.25;2.67;;;14.80;99.90;;;;;;6214172;23;20001;-88
2023/08/07 02:53:39;;;;;;;8.88;2.17;;;14.80;99.90;;;;;;6214169;23;20020;-86
2023/08/07 02:56:05;;;;;;;10.48;2.60;;;14.80;99.90;;;;;;6214352;23;20443;-88
2023/08/07 02:58:30;;;;;;;11.63;2.83;;;14.80;99.90;;;;;;6213907;23;20076;-90
2023/08/07 03:00:56;;;;;;;8.95;3.03;;;14.70;99.90;;;;;;6213669;23;20050;-88
2023/08/07 03:03:22;;;;;;;10.88;2.92;;;14.70;99.90;;;;;;6188311;23;20012;-91
2023/08/07 03:05:49;;;;;;;7.45;2.67;;;14.70;99.90;;;;;;6188960;23;20001;-87
2023/08/07 03:08:15;;;;;;;12.70;2.30;;;14.70;99.90;;;;;;6214053;23;20086;-89
2023/08/07 03:10:40;;;;;;;12.75;2.63;;;14.70;99.90;;;;;;6214552;23;20004;-89
2023/08/07 03:13:06;;;;;;;8.88;2.78;;;14.70;99.90;;;;;;6214046;23;20000;-89
2023/08/07 03:15:32;;;;;;;13.32;2.40;;;14.70;99.90;;;;;;6214073;23;20005;-89
2023/08/07 03:17:57;;;;;;;9.02;2.28;;;14.70;99.90;;;;;;6214192;23;20071;-89
2023/08/07 03:20:23;;;;;;;10.98;2.70;;;14.70;99.90;;;;;;6187784;23;20380;-89
2023/08/07 03:22:48;;;;;;;6.32;2.00;;;14.70;99.90;;;;;;6214604;23;20007;-90
2023/08/07 03:25:14;;;;;;;11.50;2.63;;;14.70;99.90;;;;;;6213564;23;20473;-87
2023/08/07 03:27:40;;;;;;;7.28;2.65;;;14.70;99.90;;;;;;6213946;23;20296;-89
2023/08/07 03:30:06;;;;;;;9.98;2.30;;;14.70;99.90;;;;;;6185451;23;20007;-87
2023/08/07 03:32:31;;;;;;;11.10;2.60;;;14.70;99.90;;;;;;6185960;23;20007;-86
2023/08/07 03:34:57;;;;;;;8.30;2.58;;;14.70;99.90;;;;;;6212698;23;20080;-89
2023/08/07 03:37:22;;;;;;;8.13;2.47;;;14.60;99.90;;;;;;6213228;23;20000;-89
2023/08/07 03:39:50;;;;;;;7.65;2.83;;;14.60;99.90;;;;;;6213955;23;20058;-87
2023/08/07 03:42:15;;;;;;;11.20;4.15;;;14.60;99.90;;;;;;6213927;23;20004;-88
2023/08/07 03:44:41;;;;;;;9.82;2.50;;;14.60;99.90;;;;;;6213682;23;20494;-90
2023/08/07 03:47:06;;;;;;;7.70;2.83;;;14.60;99.90;;;;;;6214164;23;20423;-89
2023/08/07 03:49:32;;;;;;;10.45;2.97;;;14.60;99.90;;;;;;6214683;23;20004;-88
2023/08/07 03:51:59;;;;;;;8.52;2.80;;;14.60;99.90;;;;;;6214512;23;20008;-87
2023/08/07 03:54:25;;;;;;;14.43;3.42;;;14.70;99.90;;;;;;6213690;23;20037;-88
2023/08/07 03:56:51;;;;;;;8.00;2.85;;;14.60;99.90;;;;;;6215081;23;20010;-90
2023/08/07 03:59:17;;;;;;;11.55;2.50;;;14.60;99.90;;;;;;6221320;23;20005;-87
2023/08/07 04:01:43;;;;;;;7.05;2.58;;;14.60;99.90;;;;;;6220562;23;20005;-88
2023/08/07 04:04:08;;;;;;;5.68;2.45;;;14.60;99.90;;;;;;6214844;23;20389;-92
2023/08/07 04:06:34;;;;;;;7.50;2.25;;;14.60;99.90;;;;;;6215563;23;20138;-88
2023/08/07 04:09:00;;;;;;;5.47;1.95;;;14.60;99.90;;;;;;6214208;23;20008;-90
2023/08/07 04:11:26;;;;;;;6.38;1.95;;;14.60;99.90;;;;;;6214107;23;20007;-86
2023/08/07 04:13:52;;;;;;;9.38;2.58;;;14.60;99.90;;;;;;6213779;23;19997;-88
2023/08/07 04:16:17;;;;;;;4.88;1.75;;;14.60;99.90;;;;;;6214159;23;20059;-89
2023/08/07 04:18:43;;;;;;;5.75;1.63;;;14.60;99.90;;;;;;6214431;23;20011;-90
2023/08/07 04:21:08;;;;;;;8.90;2.53;;;14.60;99.90;;;;;;6215181;23;20004;-89
2023/08/07 04:23:34;;;;;;;7.53;2.40;;;14.60;99.90;;;;;;6222677;23;20020;-90
2023/08/07 04:26:00;;;;;;;4.28;1.60;;;14.60;99.90;;;;;;6222860;23;20004;-85
2023/08/07 04:28:28;;;;;;;5.05;1.80;;;14.60;99.90;;;;;;6218303;23;20426;-88
2023/08/07 04:30:53;;;;;;;6.93;2.10;;;14.60;99.90;;;;;;6222256;23;20036;-87
2023/08/07 04:33:20;;;;;;;7.35;2.00;;;14.60;99.90;;;;;;6215828;23;20012;-89
2023/08/07 04:35:49;;;;;;;6.30;2.35;;;14.70;99.90;;;;;;6214413;23;20009;-87
2023/08/07 04:38:16;;;;;;;7.22;2.25;;;14.70;99.90;;;;;;6213838;23;20016;-88
2023/08/07 04:40:49;;;;;;;6.47;2.20;;;14.70;99.90;;;;;;6187343;23;20000;-87
2023/08/07 04:43:22;;;;;;;8.75;2.47;;;14.70;99.90;;;;;;6187606;23;20016;-88
2023/08/07 04:45:47;;;;;;;7.03;2.67;;;14.70;99.90;;;;;;6187520;23;20492;-89
2023/08/07 04:48:14;;;;;;;8.98;2.45;;;14.70;99.90;;;;;;6213727;23;20009;-87
2023/08/07 04:50:40;;;;;;;8.30;2.60;;;14.70;99.90;;;;;;6213474;23;20083;-89
2023/08/07 04:53:05;;;;;;;7.38;2.83;;;14.70;99.90;;;;;;6213422;23;20098;-87
2023/08/07 04:55:32;;;;;;;10.45;2.88;;;14.70;99.90;;;;;;6212725;23;20005;-87
2023/08/07 04:57:57;;;;;;;11.68;2.78;;;14.70;99.90;;;;;;6212296;23;20001;-86
2023/08/07 05:00:24;;;;;;;7.03;2.67;;;14.70;99.90;;;;;;6210493;23;19996;-86
2023/08/07 05:02:49;;;;;;;7.40;3.03;;;14.70;99.90;;;;;;6211439;23;20058;-88
2023/08/07 05:05:15;;;;;;;8.63;2.70;;;14.70;99.90;;;;;;6210613;23;20429;-85
2023/08/07 05:07:41;;;;;;;7.93;2.80;;;14.60;99.90;;;;;;6211766;23;20039;-86
2023/08/07 05:10:08;;;;;;;12.50;3.38;;;14.70;99.90;;;;;;6211613;23;20445;-85
2023/08/07 05:12:34;;;;;;;9.32;3.08;;;14.70;99.90;;;;;;6212653;23;20334;-86
2023/08/07 05:14:59;;;;;;;15.45;3.58;;;14.70;99.90;;;;;;6212914;23;20075;-88
2023/08/07 05:17:25;;;;;;;7.40;2.78;;;14.70;99.90;;;;;;6212881;23;20469;-88
2023/08/07 05:19:51;;;;;;;8.07;3.67;;;14.80;99.90;;;;;;6212941;23;20005;-87
2023/08/07 05:22:16;;;;;;;12.77;3.97;;;14.80;99.90;;;;;;6212761;23;20011;-86
2023/08/07 05:24:43;;;;;;;11.43;3.25;;;14.80;99.90;;;;;;6213077;23;20054;-89
2023/08/07 05:27:09;;;;;;;10.65;3.55;;;14.80;99.90;;;;;;6212968;23;20028;-87
2023/08/07 05:29:42;;;;;;;8.18;2.65;;;14.90;99.90;;;;;;6212355;23;20374;-85
2023/08/07 05:32:12;;;;;;;9.63;3.50;;;14.90;99.90;;;;;;6214159;23;20001;-87
2023/08/07 05:34:37;;;;;;;11.32;3.25;;;14.90;99.90;;;;;;6214942;23;20008;-88
2023/08/07 05:37:03;;;;;;;15.18;4.78;;;14.90;99.90;;;;;;6213411;23;20001;-87
2023/08/07 05:39:29;;;;;;;13.18;3.88;;;14.90;99.90;;;;;;6214465;23;20008;-87
2023/08/07 05:41:57;;;;;;;7.15;2.75;;;14.90;99.90;;;;;;6215538;23;20005;-87
2023/08/07 05:44:26;;;;;;;12.65;3.67;;;15.00;99.90;;;;;;6214652;23;20008;-87
2023/08/07 05:46:51;;;;;;;8.70;3.42;;;15.00;99.90;;;;;;6215154;23;20001;-86
2023/08/07 05:49:17;;;;;;;11.15;3.92;;;15.00;99.90;;;;;;6214520;23;20005;-88
2023/08/07 05:51:43;;;;;;;5.72;3.30;;;15.10;99.90;;;;;;6215233;23;20008;-86
2023/08/07 05:54:08;;;;;;;9.85;3.70;;;15.10;99.90;;;;;;6214285;23;20016;-90
2023/08/07 05:56:35;;;;;;;12.38;3.97;;;15.10;99.90;;;;;;6215121;23;20012;-87
2023/08/07 05:59:01;;;;;;;8.65;2.58;;;15.20;99.90;;;;;;6215755;23;20020;-89
2023/08/07 06:01:30;;;;;;;13.00;3.55;;;15.20;99.90;;;;;;6214990;23;20032;-88
2023/08/07 06:03:59;;;;;;;8.75;3.05;;;15.20;99.90;;;;;;6215813;23;20039;-87
2023/08/07 06:06:27;;;;;;;8.80;2.95;;;15.20;99.90;;;;;;6215451;23;20028;-85
2023/08/07 06:08:54;;;;;;;8.70;2.80;;;15.30;99.90;;;;;;6214516;23;20005;-89
2023/08/07 06:11:19;;;;;;;9.00;3.03;;;15.30;99.90;;;;;;6215008;23;20008;-91
2023/08/07 06:13:45;;;;;;;8.38;2.85;;;15.30;99.90;;;;;;6215376;23;20004;-89
2023/08/07 06:16:11;;;;;;;10.57;3.10;;;15.30;99.90;;;;;;6215354;23;19997;-91
2023/08/07 06:18:37;;;;;;;9.95;3.47;;;15.40;99.90;;;;;;6215870;23;20030;-91
2023/08/07 06:21:06;;;;;;;5.85;2.47;;;15.30;99.90;;;;;;6188902;23;20008;-89
2023/08/07 06:23:32;;;;;;;9.48;3.05;;;15.40;99.90;;;;;;6216236;23;20001;-89
2023/08/07 06:25:57;;;;;;;10.80;3.47;;;15.30;99.90;;;;;;6228589;23;19987;-89
2023/08/07 06:28:23;;;;;;;9.35;2.80;;;15.40;99.90;;;;;;6234090;23;20011;-90
2023/08/07 06:30:48;;;;;;;9.52;3.55;;;15.40;99.90;;;;;;6236347;23;20005;-89
2023/08/07 06:33:14;;;;;;;8.63;3.45;;;15.40;99.90;;;;;;6223439;23;20012;-89
2023/08/07 06:35:40;;;;;;;11.13;3.25;;;15.50;99.90;;;;;;6220094;23;20032;-89
2023/08/07 06:38:06;;;;;;;9.65;3.05;;;15.50;99.90;;;;;;6222985;23;20000;-89
2023/08/07 06:40:31;;;;;;;10.63;2.85;;;15.50;99.90;;;;;;6216115;23;20001;-89
2023/08/07 06:42:57;;;;;;;12.10;3.28;;;15.60;99.90;;;;;;6215148;23;20055;-89
2023/08/07 06:45:23;;;;;;;7.85;3.10;;;15.60;99.90;;;;;;6215296;23;20005;-88
2023/08/07 06:47:48;;;;;;;7.75;2.10;;;15.70;99.90;;;;;;6216422;23;20419;-89
2023/08/07 06:50:14;;;;;;;8.80;2.90;;;15.80;99.90;;;;;;6215411;23;20423;-89
2023/08/07 06:52:40;;;;;;;8.77;2.58;;;15.90;99.90;;;;;;6188777;23;20311;-89
2023/08/07 06:55:06;;;;;;;11.63;3.10;;;16.00;99.90;;;;;;6213025;23;20024;-89
2023/08/07 06:57:32;;;;;;;10.07;3.30;;;16.10;99.90;;;;;;6220481;23;20005;-89
2023/08/07 06:59:57;;;;;;;7.25;2.67;;;16.10;99.90;;;;;;6219192;23;20007;-89
2023/08/07 07:02:23;;;;;;;8.15;2.40;;;16.20;99.90;;;;;;6217347;23;20007;-89
2023/08/07 07:04:49;;;;;;;10.70;2.70;;;16.30;99.90;;;;;;6219953;23;19997;-90
2023/08/07 07:07:14;;;;;;;12.20;2.88;;;16.30;99.90;;;;;;6211830;23;20012;-88
2023/08/07 07:09:40;;;;;;;10.77;3.42;;;16.30;99.90;;;;;;6215632;23;20008;-88
2023/08/07 07:12:06;;;;;;;9.85;2.88;;;16.40;99.90;;;;;;6215144;23;20071;-89
2023/08/07 07:14:33;;;;;;;9.57;3.35;;;16.40;99.90;;;;;;6216067;23;20078;-87
2023/08/07 07:16:59;;;;;;;11.38;3.05;;;16.50;99.90;;;;;;6214887;23;20015;-88
2023/08/07 07:19:24;;;;;;;12.32;3.22;;;16.50;99.90;;;;;;6214668;23;20083;-88
2023/08/07 07:21:50;;;;;;;6.93;3.28;;;16.60;99.90;;;;;;6214128;23;20055;-87
2023/08/07 07:24:15;;;;;;;7.53;2.78;;;16.60;99.90;;;;;;6213496;23;20009;-88
2023/08/07 07:26:41;;;;;;;9.93;3.33;;;16.60;99.90;;;;;;6214076;23;20001;-85
2023/08/07 07:29:07;;;;;;;6.50;3.22;;;16.60;99.90;;;;;;6212824;23;20008;-86
2023/08/07 07:31:32;;;;;;;10.20;3.22;;;16.60;99.90;;;;;;6213138;23;20001;-88
2023/08/07 07:33:58;;;;;;;9.20;3.22;;;16.60;99.90;;;;;;6214766;23;20008;-88
2023/08/07 07:36:23;;;;;;;8.75;3.20;;;16.60;99.90;;;;;;6214353;23;20001;-89
2023/08/07 07:38:49;;;;;;;9.05;3.00;;;16.50;99.90;;;;;;6212124;23;20005;-88
2023/08/07 07:41:15;;;;;;;11.82;4.22;;;16.50;99.90;;;;;;6214211;23;20007;-88
2023/08/07 07:43:41;;;;;;;14.52;4.05;;;16.40;99.90;;;;;;6214522;23;20330;-89
2023/08/07 07:46:07;;;;;;;12.32;3.72;;;16.40;99.90;;;;;;6213669;23;20008;-90
2023/08/07 07:48:33;;;;;;;9.10;3.47;;;16.60;99.90;;;;;;6213538;23;20008;-87
2023/08/07 07:51:00;;;;;;;11.30;4.00;;;16.80;99.90;;;;;;6214168;23;20008;-88
2023/08/07 07:53:26;;;;;;;8.93;3.22;;;17.00;99.90;;;;;;6212373;23;20008;-88
2023/08/07 07:55:51;;;;;;;9.68;3.78;;;17.20;99.90;;;;;;6212733;23;20012;-90
2023/08/07 07:58:17;;;;;;;9.98;2.80;;;17.20;99.90;;;;;;6215097;23;20083;-87
2023/08/07 08:00:42;;;;;;;11.52;3.00;;;17.20;99.90;;;;;;6217207;23;20000;-92
2023/08/07 08:03:08;;;;;;;7.97;3.03;;;17.10;99.90;;;;;;6217281;23;20422;-93
2023/08/07 08:05:34;;;;;;;10.82;3.15;;;16.90;99.90;;;;;;6215718;23;20042;-90
2023/08/07 08:08:01;;;;;;;10.77;3.35;;;16.80;99.90;;;;;;6189340;23;20000;-90
2023/08/07 08:10:27;;;;;;;10.30;3.55;;;16.70;99.90;;;;;;6215703;23;20054;-91
2023/08/07 08:12:55;;;;;;;12.15;3.53;;;16.60;99.90;;;;;;6215621;23;19997;-93
2023/08/07 08:15:21;;;;;;;8.93;3.13;;;16.40;99.90;;;;;;6187764;23;20012;-92
2023/08/07 08:17:47;;;;;;;8.90;3.15;;;16.50;99.90;;;;;;6214898;23;20001;-92
2023/08/07 08:20:18;;;;;;;12.25;3.20;;;16.50;99.90;;;;;;6213126;23;20009;-92
2023/08/07 08:22:44;;;;;;;12.95;4.07;;;16.50;99.90;;;;;;6214051;23;19996;-90
2023/08/07 08:25:11;;;;;;;10.88;3.60;;;16.70;99.90;;;;;;6214298;23;20055;-90
2023/08/07 08:27:40;;;;;;;11.65;3.42;;;16.70;99.90;;;;;;6216140;23;20028;-92
2023/08/07 08:30:06;;;;;;;13.40;4.13;;;16.70;99.90;;;;;;6216480;23;20005;-93
2023/08/07 08:32:32;;;;;;;11.43;4.15;;;16.80;99.90;;;;;;6217603;23;20004;-92
2023/08/07 08:34:57;;;;;;;9.38;3.35;;;16.90;99.90;;;;;;6217284;23;20007;-95
2023/08/07 08:37:23;;;;;;;13.35;3.20;;;17.00;99.90;;;;;;6217140;23;20015;-95
2023/08/07 08:39:49;;;;;;;12.65;3.92;;;17.20;99.90;;;;;;6216366;23;20063;-94
2023/08/07 08:42:18;;;;;;;12.77;3.22;;;17.20;99.90;;;;;;6215616;23;20387;-96
2023/08/07 08:44:54;;;;;;;10.38;3.28;;;17.00;99.90;;;;;;6217052;23;20001;-91
2023/08/07 08:47:28;;;;;;;9.88;2.88;;;16.80;99.90;;;;;;6212325;23;20004;-91
2023/08/07 08:50:11;;;;;;;10.43;3.55;;;16.60;99.90;;;;;;6212419;23;20000;-89
2023/08/07 08:52:38;;;;;;;11.15;4.05;;;16.60;99.90;;;;;;6213530;23;20031;-90
2023/08/07 08:55:04;;;;;;;7.95;3.45;;;16.50;99.90;;;;;;6213329;23;20084;-92
2023/08/07 08:57:30;;;;;;;9.25;3.40;;;16.50;99.90;;;;;;6213406;23;20486;-91
2023/08/07 08:59:57;;;;;;;10.43;3.92;;;16.70;99.90;;;;;;6212757;23;20047;-90
2023/08/07 09:02:23;;;;;;;13.18;3.88;;;16.80;99.90;;;;;;6213390;23;20432;-90
2023/08/07 09:04:49;;;;;;;12.50;2.95;;;16.90;99.90;;;;;;6214549;23;20028;-88
2023/08/07 09:07:16;;;;;;;12.73;3.70;;;17.10;99.90;;;;;;6217025;23;20001;-89
2023/08/07 09:09:44;;;;;;;9.82;2.83;;;17.20;99.90;;;;;;6217406;23;20076;-89
2023/08/07 09:12:24;;;;;;;8.60;2.80;;;17.20;99.90;;;;;;6217429;23;20075;-90
2023/08/07 09:14:54;;;;;;;8.05;2.45;;;17.10;99.90;;;;;;6218151;23;20005;-91
2023/08/07 09:17:27;;;;;;;11.98;3.40;;;17.10;99.90;;;;;;6219121;23;20043;-94
2023/08/07 09:19:53;;;;;;;15.57;3.05;;;17.10;99.90;;;;;;6219387;23;20415;-90
2023/08/07 09:22:19;;;;;;;10.90;3.70;;;17.10;99.90;;;;;;6216033;23;20050;-89
2023/08/07 09:24:45;;;;;;;7.10;2.72;;;17.10;99.90;;;;;;6190085;23;20008;-87
2023/08/07 09:27:11;;;;;;;10.23;3.55;;;17.10;99.90;;;;;;6216097;23;20000;-88
2023/08/07 09:29:39;;;;;;;6.97;2.42;;;17.30;99.90;;;;;;6216601;23;20004;-90
2023/08/07 09:32:09;;;;;;;8.88;2.65;;;17.40;99.90;;;;;;6216567;23;20030;-88
2023/08/07 09:34:35;;;;;;;6.65;2.30;;;17.60;99.90;;;;;;6216084;23;20390;-90
2023/08/07 09:37:01;;;;;;;6.68;2.22;;;17.60;99.90;;;;;;6218862;23;20001;-89
2023/08/07 09:39:28;;;;;;;7.30;2.58;;;17.70;99.90;;;;;;6218768;23;20080;-91
2023/08/07 09:41:53;;;;;;;5.60;2.10;;;17.60;99.90;;;;;;6216807;23;20023;-89
2023/08/07 09:44:19;;;;;;;7.35;2.35;;;17.60;99.90;;;;;;6215281;23;20612;-88
2023/08/07 09:46:45;;;;;;;10.10;2.45;;;17.50;99.90;;;;;;6215470;23;20005;-87
2023/08/07 09:49:11;;;;;;;8.30;2.20;;;17.50;99.90;;;;;;6215020;23;20426;-88
2023/08/07 09:51:44;;;;;;;6.00;2.03;;;17.60;99.90;;;;;;6215443;23;20007;-90
2023/08/07 09:54:10;;;;;;;6.95;2.45;;;17.70;99.90;;;;;;6215133;23;20015;-89
2023/08/07 09:56:36;;;;;;;6.90;1.98;;;17.70;99.90;;;;;;6215031;23;20004;-88
2023/08/07 09:59:02;;;;;;;8.35;2.42;;;17.60;99.90;;;;;;6214483;23;20027;-89
2023/08/07 10:01:27;;;;;;;6.70;2.10;;;17.50;99.90;;;;;;6214475;23;20031;-89
2023/08/07 10:03:54;;;;;;;7.80;2.88;;;17.40;99.90;;;;;;6215598;23;20057;-90
2023/08/07 10:06:20;;;;;;;6.95;2.60;;;17.40;99.90;;;;;;6214100;23;20054;-89
2023/08/07 10:08:46;;;;;;;7.65;2.35;;;17.50;99.90;;;;;;6214973;23;20008;-89
2023/08/07 10:11:13;;;;;;;16.60;2.58;;;17.50;99.90;;;;;;6214602;23;20005;-89
2023/08/07 10:13:40;;;;;;;6.55;1.80;;;17.50;99.90;;;;;;6214630;23;20008;-89
2023/08/07 10:16:07;;;;;;;7.90;2.45;;;17.60;99.90;;;;;;6213219;23;20005;-87
2023/08/07 10:18:36;;;;;;;5.68;2.20;;;17.80;99.90;;;;;;6186853;23;20051;-87
2023/08/07 10:21:04;;;;;;;9.35;3.35;;;18.00;99.90;;;;;;6214148;23;20000;-89
2023/08/07 10:23:34;;;;;;;10.68;2.33;;;18.20;99.90;;;;;;6187507;23;20005;-88
2023/08/07 10:26:02;;;;;;;11.18;2.20;;;18.40;99.90;;;;;;6213465;23;20009;-87
2023/08/07 10:28:29;;;;;;;9.38;2.95;;;18.50;99.90;;;;;;6185687;23;20015;-87
2023/08/07 10:30:55;;;;;;;9.25;2.10;;;18.50;99.90;;;;;;6213535;23;20031;-87
2023/08/07 10:33:21;;;;;;;9.18;2.83;;;18.50;99.90;;;;;;6213064;23;20485;-87
2023/08/07 10:35:48;;;;;;;5.32;1.73;;;18.50;99.90;;;;;;6212348;23;20028;-87
2023/08/07 10:38:14;;;;;;;10.82;2.70;;;18.50;99.90;;;;;;6212280;23;20001;-87
2023/08/07 10:41:07;;;;;;;7.60;2.42;;;18.40;99.90;;;;;;6212351;23;20001;-84
2023/08/07 10:43:43;;;;;;;9.23;2.75;;;18.50;99.90;;;;;;6186288;23;20377;-82
2023/08/07 10:46:19;;;;;;;9.90;2.90;;;18.40;99.90;;;;;;6212682;23;20303;-79
2023/08/07 10:48:48;;;;;;;9.93;2.42;;;18.50;99.90;;;;;;6212570;23;20004;-79
2023/08/07 10:51:16;;;;;;;7.85;2.72;;;18.60;99.90;;;;;;6184479;23;20008;-79
2023/08/07 10:53:51;;;;;;;6.20;1.80;;;18.60;99.90;;;;;;6212393;23;20040;-79
2023/08/07 10:56:29;;;;;;;6.68;2.05;;;18.70;99.90;;;;;;6211939;23;20027;-80
2023/08/07 10:58:55;;;;;;;6.75;2.70;;;18.70;99.90;;;;;;6185591;23;20370;-79
2023/08/07 11:01:35;;;;;;;7.10;2.40;;;18.60;99.90;;;;;;6209280;23;20024;-81
2023/08/07 11:04:12;;;;;;;4.13;1.65;;;18.60;99.90;;;;;;6184942;23;20004;-79
2023/08/07 11:06:40;;;;;;;7.10;1.92;;;18.60;99.90;;;;;;6212579;23;20004;-79
2023/08/07 11:09:08;;;;;;;5.25;2.03;;;18.40;99.90;;;;;;6211623;23;19997;-78
2023/08/07 11:11:44;;;;;;;5.05;1.90;;;18.40;99.90;;;;;;6210838;23;20099;-79
2023/08/07 11:14:13;;;;;;;5.00;2.10;;;18.40;99.90;;;;;;6185150;23;20083;-80
2023/08/07 11:16:39;;;;;;;7.88;3.08;;;18.40;99.90;;;;;;6212469;23;20485;-79
2023/08/07 11:19:05;;;;;;;6.47;2.15;;;18.30;99.90;;;;;;6185484;23;20013;-79
2023/08/07 11:21:32;;;;;;;8.30;2.72;;;18.30;99.90;;;;;;6185941;23;19997;-80
2023/08/07 11:23:57;;;;;;;5.43;2.33;;;18.30;99.90;;;;;;6211199;23;20001;-80
2023/08/07 11:26:25;;;;;;;5.22;2.13;;;18.50;99.90;;;;;;6211715;23;20084;-80
2023/08/07 11:28:51;;;;;;;8.07;2.08;;;18.60;99.60;;;;;;6211474;23;20028;-80
2023/08/07 11:31:18;;;;;;;7.18;2.40;;;18.70;99.40;;;;;;6184934;23;20012;-84
2023/08/07 11:33:44;;;;;;;5.78;2.28;;;18.90;99.10;;;;;;6211111;23;20000;-80
2023/08/07 11:36:14;;;;;;;9.45;2.63;;;19.00;99.10;;;;;;6214064;23;20007;-86
2023/08/07 11:38:42;;;;;;;6.00;2.00;;;19.10;98.50;;;;;;6220745;23;20009;-87
2023/08/07 11:41:08;;;;;;;7.10;2.58;;;19.20;98.40;;;;;;6222304;23;20051;-87
2023/08/07 11:43:35;;;;;;;5.53;2.35;;;19.20;98.50;;;;;;6188891;23;20009;-88
2023/08/07 11:46:05;;;;;;;8.15;1.92;;;19.30;98.80;;;;;;6215709;23;20012;-84
2023/08/07 11:48:33;;;;;;;6.60;2.50;;;19.50;98.70;;;;;;6216817;23;20518;-89
2023/08/07 11:51:00;;;;;;;5.10;2.08;;;19.50;98.60;;;;;;6217251;23;20040;-91
2023/08/07 11:53:28;;;;;;;4.20;1.83;;;19.40;98.60;;;;;;6216532;23;20016;-92
2023/08/07 11:56:00;;;;;;;8.95;2.47;;;19.30;98.70;;;;;;6216535;23;19996;-89
2023/08/07 11:58:33;;;;;;;7.55;2.28;;;19.30;98.90;;;;;;6216030;23;20080;-91
2023/08/07 12:00:59;;;;;;;5.15;1.88;;;19.20;98.90;;;;;;6215931;23;20323;-89
2023/08/07 12:03:29;;;;;;;5.90;1.88;;;19.20;98.60;;;;;;6219071;23;20000;-89
2023/08/07 12:05:59;;;;;;;5.78;2.15;;;19.10;98.40;;;;;;6231591;23;20011;-90
2023/08/07 12:08:30;;;;;;;7.07;1.95;;;19.00;98.40;;;;;;6219414;23;20005;-90
2023/08/07 12:10:56;;;;;;;5.68;1.88;;;18.90;97.90;;;;;;6231399;23;19984;-89
2023/08/07 12:13:28;;;;;;;7.40;1.75;;;18.70;97.40;;;;;;6228035;23;20035;-91
2023/08/07 12:15:55;;;;;;;6.72;1.52;;;18.50;97.50;;;;;;6218767;23;20024;-89
2023/08/07 12:18:22;;;;;;;7.43;2.05;;;18.40;98.10;;;;;;6217913;23;20011;-88
2023/08/07 12:20:50;;;;;;;6.38;1.70;;;18.40;98.40;;;;;;6218227;23;20003;-78
2023/08/07 12:23:16;;;;;;;9.63;2.00;;;18.40;98.40;;;;;;6214348;23;20009;-88
2023/08/07 12:25:42;;;;;;;4.88;2.00;;;18.40;98.50;;;;;;6212759;23;20414;-87
2023/08/07 12:28:08;;;;;;;7.60;2.35;;;18.50;98.70;;;;;;6183756;23;20084;-83
2023/08/07 12:30:37;;;;;;;4.97;2.10;;;18.50;98.50;;;;;;6211216;23;20087;-83
2023/08/07 12:33:04;;;;;;;7.63;2.08;;;18.60;98.30;;;;;;6184498;23;20012;-84
2023/08/07 12:35:34;;;;;;;5.72;2.35;;;18.60;98.30;;;;;;6211556;23;20000;-82
2023/08/07 12:38:01;;;;;;;6.22;1.70;;;18.70;98.20;;;;;;6211834;23;20001;-82
2023/08/07 12:40:27;;;;;;;4.95;1.70;;;18.80;97.90;;;;;;6181465;23;20095;-86
2023/08/07 12:42:53;;;;;;;5.55;2.30;;;18.90;97.90;;;;;;6211659;23;20035;-84